sensor_id;sensor_type;location;lat;lon;timestamp;pressure;altitude;pressure_sealevel;temperature;humidity
78206;BME280;67480;48.920;12.880;2023-07-13T06:43:57;97094.31;;;21.69;55.82
78206;BME280;67480;48.920;12.880;2023-07-13T06:46:23;97088.91;;;21.87;56.19
78206;BME280;67480;48.920;12.880;2023-07-13T06:48:48;97094.00;;;21.89;55.87
78206;BME280;67480;48.920;12.880;2023-07-13T06:51:14;97088.09;;;21.83;55.57
78206;BME280;67480;48.920;12.880;2023-07-13T06:53:39;97090.03;;;21.79;56.42
78206;BME280;67480;48.920;12.880;2023-07-13T06:56:05;97084.50;;;21.72;56.15
78206;BME280;67480;48.920;12.880;2023-07-13T06:58:31;97093.09;;;21.66;56.12
78206;BME280;67480;48.920;12.880;2023-07-13T07:00:56;97092.22;;;21.48;56.76
78206;BME280;67480;48.920;12.880;2023-07-13T07:03:22;97090.41;;;21.74;56.25
78206;BME280;67480;48.920;12.880;2023-07-13T07:05:47;97092.56;;;22.24;54.95
78206;BME280;67480;48.920;12.880;2023-07-13T07:08:12;97099.63;;;22.17;54.02
78206;BME280;67480;48.920;12.880;2023-07-13T07:10:38;97100.22;;;21.78;54.41
78206;BME280;67480;48.920;12.880;2023-07-13T07:13:03;97097.19;;;22.05;54.29
78206;BME280;67480;48.920;12.880;2023-07-13T07:15:29;97104.72;;;22.19;54.08
78206;BME280;67480;48.920;12.880;2023-07-13T07:17:55;97109.06;;;22.45;53.74
78206;BME280;67480;48.920;12.880;2023-07-13T07:20:20;97112.84;;;22.05;54.34
78206;BME280;67480;48.920;12.880;2023-07-13T07:22:46;97116.72;;;21.30;55.46
78206;BME280;67480;48.920;12.880;2023-07-13T07:25:12;97113.78;;;21.01;56.96
78206;BME280;67480;48.920;12.880;2023-07-13T07:27:37;97113.88;;;21.16;56.80
78206;BME280;67480;48.920;12.880;2023-07-13T07:30:03;97128.94;;;21.36;56.68
78206;BME280;67480;48.920;12.880;2023-07-13T07:32:30;97127.84;;;21.55;55.91
78206;BME280;67480;48.920;12.880;2023-07-13T07:34:56;97127.53;;;21.64;55.84
78206;BME280;67480;48.920;12.880;2023-07-13T07:37:22;97123.34;;;21.25;56.03
78206;BME280;67480;48.920;12.880;2023-07-13T07:39:47;97119.31;;;21.64;55.05
78206;BME280;67480;48.920;12.880;2023-07-13T07:42:13;97117.97;;;22.10;54.56
78206;BME280;67480;48.920;12.880;2023-07-13T07:44:39;97116.88;;;22.39;53.84
78206;BME280;67480;48.920;12.880;2023-07-13T07:47:05;97117.38;;;23.03;52.38
78206;BME280;67480;48.920;12.880;2023-07-13T07:49:31;97116.16;;;23.61;50.13
78206;BME280;67480;48.920;12.880;2023-07-13T07:51:57;97114.22;;;23.22;50.57
78206;BME280;67480;48.920;12.880;2023-07-13T07:54:22;97116.56;;;23.31;50.60
78206;BME280;67480;48.920;12.880;2023-07-13T07:56:48;97120.91;;;23.03;49.43
78206;BME280;67480;48.920;12.880;2023-07-13T07:59:14;97105.16;;;23.36;48.71
78206;BME280;67480;48.920;12.880;2023-07-13T08:01:39;97109.47;;;23.66;48.05
78206;BME280;67480;48.920;12.880;2023-07-13T08:04:06;97103.19;;;23.58;47.40
78206;BME280;67480;48.920;12.880;2023-07-13T08:06:32;97104.44;;;23.18;48.11
78206;BME280;67480;48.920;12.880;2023-07-13T08:08:59;97108.97;;;24.00;47.72
78206;BME280;67480;48.920;12.880;2023-07-13T08:11:24;97116.38;;;24.10;46.02
78206;BME280;67480;48.920;12.880;2023-07-13T08:13:50;97106.88;;;24.26;45.19
78206;BME280;67480;48.920;12.880;2023-07-13T08:16:16;97116.16;;;25.09;43.12
78206;BME280;67480;48.920;12.880;2023-07-13T08:18:41;97129.22;;;25.85;42.55
78206;BME280;67480;48.920;12.880;2023-07-13T08:21:08;97136.44;;;26.10;42.36
78206;BME280;67480;48.920;12.880;2023-07-13T08:23:34;97129.94;;;25.09;43.94
78206;BME280;67480;48.920;12.880;2023-07-13T08:26:00;97138.28;;;24.99;43.87
78206;BME280;67480;48.920;12.880;2023-07-13T08:28:29;97129.31;;;24.87;43.00
78206;BME280;67480;48.920;12.880;2023-07-13T08:30:55;97134.53;;;24.67;42.09
78206;BME280;67480;48.920;12.880;2023-07-13T08:33:22;97137.72;;;24.62;39.37
78206;BME280;67480;48.920;12.880;2023-07-13T08:35:50;97140.84;;;25.20;38.49
78206;BME280;67480;48.920;12.880;2023-07-13T08:38:16;97142.63;;;24.92;39.56
78206;BME280;67480;48.920;12.880;2023-07-13T08:40:42;97146.19;;;24.89;39.96
78206;BME280;67480;48.920;12.880;2023-07-13T08:43:17;97148.63;;;24.84;38.33
78206;BME280;67480;48.920;12.880;2023-07-13T08:45:46;97155.06;;;24.52;38.05
78206;BME280;67480;48.920;12.880;2023-07-13T08:48:20;97163.00;;;24.39;38.42
78206;BME280;67480;48.920;12.880;2023-07-13T08:53:48;97168.25;;;25.80;35.47
78206;BME280;67480;48.920;12.880;2023-07-13T08:56:23;97174.69;;;26.04;36.31
78206;BME280;67480;48.920;12.880;2023-07-13T08:58:53;97181.25;;;25.34;34.88
78206;BME280;67480;48.920;12.880;2023-07-13T09:01:30;97182.66;;;25.95;34.26
78206;BME280;67480;48.920;12.880;2023-07-13T09:04:06;97189.84;;;25.40;34.52
78206;BME280;67480;48.920;12.880;2023-07-13T09:06:44;97177.16;;;25.95;35.11
78206;BME280;67480;48.920;12.880;2023-07-13T09:14:53;97176.53;;;25.80;35.04
78206;BME280;67480;48.920;12.880;2023-07-13T09:17:34;97174.41;;;25.08;34.11
78206;BME280;67480;48.920;12.880;2023-07-13T09:20:13;97176.84;;;25.89;33.64
78206;BME280;67480;48.920;12.880;2023-07-13T09:22:42;97183.31;;;25.72;32.96
78206;BME280;67480;48.920;12.880;2023-07-13T09:25:24;97180.91;;;26.15;32.98
78206;BME280;67480;48.920;12.880;2023-07-13T09:27:53;97186.19;;;26.64;31.97
78206;BME280;67480;48.920;12.880;2023-07-13T09:30:30;97187.19;;;26.78;31.98
78206;BME280;67480;48.920;12.880;2023-07-13T09:32:57;97178.38;;;26.28;33.23
78206;BME280;67480;48.920;12.880;2023-07-13T09:35:26;97183.63;;;25.77;34.39
78206;BME280;67480;48.920;12.880;2023-07-13T09:38:01;97184.75;;;25.45;33.49
78206;BME280;67480;48.920;12.880;2023-07-13T09:40:46;97180.31;;;25.93;33.68
78206;BME280;67480;48.920;12.880;2023-07-13T09:43:15;97181.53;;;27.39;32.92
78206;BME280;67480;48.920;12.880;2023-07-13T09:45:45;97166.84;;;27.90;31.52
78206;BME280;67480;48.920;12.880;2023-07-13T09:48:12;97169.44;;;28.17;30.98
78206;BME280;67480;48.920;12.880;2023-07-13T09:50:41;97176.47;;;28.62;30.98
78206;BME280;67480;48.920;12.880;2023-07-13T09:53:18;97174.56;;;28.18;29.48
78206;BME280;67480;48.920;12.880;2023-07-13T09:55:46;97187.25;;;28.36;28.78
78206;BME280;67480;48.920;12.880;2023-07-13T09:58:21;97176.91;;;28.40;29.76
78206;BME280;67480;48.920;12.880;2023-07-13T10:01:02;97183.53;;;28.99;28.62
78206;BME280;67480;48.920;12.880;2023-07-13T10:03:31;97179.78;;;29.72;28.08
78206;BME280;67480;48.920;12.880;2023-07-13T10:06:14;97189.53;;;30.22;27.68
78206;BME280;67480;48.920;12.880;2023-07-13T10:08:40;97198.66;;;29.93;26.61
78206;BME280;67480;48.920;12.880;2023-07-13T10:11:10;97190.56;;;29.99;27.08
78206;BME280;67480;48.920;12.880;2023-07-13T10:13:44;97177.06;;;29.84;26.57
78206;BME280;67480;48.920;12.880;2023-07-13T10:16:10;97194.69;;;30.07;26.71
78206;BME280;67480;48.920;12.880;2023-07-13T10:21:23;97198.38;;;27.92;29.02
78206;BME280;67480;48.920;12.880;2023-07-13T10:23:57;97196.06;;;27.43;30.45
78206;BME280;67480;48.920;12.880;2023-07-13T10:26:33;97209.06;;;27.70;29.30
78206;BME280;67480;48.920;12.880;2023-07-13T10:29:05;97197.03;;;28.00;28.84
78206;BME280;67480;48.920;12.880;2023-07-13T10:31:35;97197.41;;;28.23;28.84
78206;BME280;67480;48.920;12.880;2023-07-13T10:34:02;97201.38;;;28.62;28.62
78206;BME280;67480;48.920;12.880;2023-07-13T10:36:32;97199.53;;;28.15;28.89
78206;BME280;67480;48.920;12.880;2023-07-13T10:39:02;97200.03;;;27.90;30.22
78206;BME280;67480;48.920;12.880;2023-07-13T10:41:32;97194.22;;;27.09;30.47
78206;BME280;67480;48.920;12.880;2023-07-13T10:44:00;97192.31;;;26.79;29.80
78206;BME280;67480;48.920;12.880;2023-07-13T10:46:27;97208.25;;;26.64;30.72
78206;BME280;67480;48.920;12.880;2023-07-13T10:49:02;97202.41;;;26.28;31.60
78206;BME280;67480;48.920;12.880;2023-07-13T10:51:30;97194.47;;;27.19;31.05
78206;BME280;67480;48.920;12.880;2023-07-13T10:59:38;97197.16;;;29.59;27.59
78206;BME280;67480;48.920;12.880;2023-07-13T11:04:42;97203.19;;;29.05;26.52
78206;BME280;67480;48.920;12.880;2023-07-13T11:09:50;97198.19;;;29.65;25.01
78206;BME280;67480;48.920;12.880;2023-07-13T11:22:48;97198.34;;;28.72;26.59
78206;BME280;67480;48.920;12.880;2023-07-13T11:27:49;97187.94;;;30.37;25.20
78206;BME280;67480;48.920;12.880;2023-07-13T11:32:51;97201.19;;;32.41;21.73
78206;BME280;67480;48.920;12.880;2023-07-13T11:35:22;97212.38;;;31.71;22.88
78206;BME280;67480;48.920;12.880;2023-07-13T11:37:51;97207.00;;;31.29;22.75
78206;BME280;67480;48.920;12.880;2023-07-13T11:40:17;97198.53;;;30.13;23.90
78206;BME280;67480;48.920;12.880;2023-07-13T11:42:43;97198.59;;;29.47;24.65
78206;BME280;67480;48.920;12.880;2023-07-13T11:45:21;97207.38;;;30.50;24.20
78206;BME280;67480;48.920;12.880;2023-07-13T11:47:49;97210.53;;;32.79;22.14
78206;BME280;67480;48.920;12.880;2023-07-13T11:50:23;97217.03;;;32.76;20.63
78206;BME280;67480;48.920;12.880;2023-07-13T11:52:50;97225.56;;;33.22;20.51
78206;BME280;67480;48.920;12.880;2023-07-13T11:55:20;97217.50;;;34.11;20.64
78206;BME280;67480;48.920;12.880;2023-07-13T11:57:53;97210.47;;;35.04;18.86
78206;BME280;67480;48.920;12.880;2023-07-13T12:00:26;97220.53;;;34.68;18.89
78206;BME280;67480;48.920;12.880;2023-07-13T12:02:54;97211.47;;;35.25;19.00
78206;BME280;67480;48.920;12.880;2023-07-13T12:05:21;97211.25;;;33.70;19.91
78206;BME280;67480;48.920;12.880;2023-07-13T12:07:47;97204.09;;;33.50;21.05
78206;BME280;67480;48.920;12.880;2023-07-13T12:13:11;97216.31;;;32.62;20.70
78206;BME280;67480;48.920;12.880;2023-07-13T12:15:43;97194.22;;;31.79;21.36
78206;BME280;67480;48.920;12.880;2023-07-13T12:18:15;97200.56;;;31.80;21.23
78206;BME280;67480;48.920;12.880;2023-07-13T12:20:44;97205.81;;;31.65;20.74
78206;BME280;67480;48.920;12.880;2023-07-13T12:23:25;97197.72;;;33.40;19.87
78206;BME280;67480;48.920;12.880;2023-07-13T12:25:51;97196.56;;;33.78;20.25
78206;BME280;67480;48.920;12.880;2023-07-13T12:28:35;97193.53;;;34.56;19.00
78206;BME280;67480;48.920;12.880;2023-07-13T12:31:04;97201.78;;;35.60;18.64
78206;BME280;67480;48.920;12.880;2023-07-13T12:33:30;97190.84;;;33.91;19.20
78206;BME280;67480;48.920;12.880;2023-07-13T12:35:58;97197.34;;;34.25;19.17
78206;BME280;67480;48.920;12.880;2023-07-13T12:38:25;97184.94;;;33.98;18.67
78206;BME280;67480;48.920;12.880;2023-07-13T12:40:51;97190.38;;;33.83;19.03
78206;BME280;67480;48.920;12.880;2023-07-13T12:43:20;97185.09;;;34.23;19.40
78206;BME280;67480;48.920;12.880;2023-07-13T12:48:41;97170.22;;;34.68;20.33
78206;BME280;67480;48.920;12.880;2023-07-13T12:51:10;97162.47;;;34.72;19.77
78206;BME280;67480;48.920;12.880;2023-07-13T12:53:41;97167.72;;;34.00;19.44
78206;BME280;67480;48.920;12.880;2023-07-13T12:56:17;97163.53;;;33.95;20.49
78206;BME280;67480;48.920;12.880;2023-07-13T12:58:43;97151.44;;;33.98;19.81
78206;BME280;67480;48.920;12.880;2023-07-13T13:01:13;97159.28;;;32.76;20.59
78206;BME280;67480;48.920;12.880;2023-07-13T13:03:44;97152.63;;;31.02;21.79
78206;BME280;67480;48.920;12.880;2023-07-13T13:08:43;97138.44;;;32.05;20.77
78206;BME280;67480;48.920;12.880;2023-07-13T13:11:09;97138.06;;;31.94;20.80
78206;BME280;67480;48.920;12.880;2023-07-13T13:13:35;97147.91;;;32.30;20.15
78206;BME280;67480;48.920;12.880;2023-07-13T13:16:12;97139.38;;;32.11;21.59
78206;BME280;67480;48.920;12.880;2023-07-13T13:18:39;97123.03;;;32.13;20.77
78206;BME280;67480;48.920;12.880;2023-07-13T13:21:05;97131.25;;;31.25;20.77
78206;BME280;67480;48.920;12.880;2023-07-13T13:23:30;97137.63;;;31.25;22.01
78206;BME280;67480;48.920;12.880;2023-07-13T13:25:55;97142.44;;;30.73;22.04
78206;BME280;67480;48.920;12.880;2023-07-13T13:28:21;97133.91;;;30.26;22.34
78206;BME280;67480;48.920;12.880;2023-07-13T13:30:50;97138.84;;;30.34;22.89
78206;BME280;67480;48.920;12.880;2023-07-13T13:33:18;97124.22;;;28.80;23.38
78206;BME280;67480;48.920;12.880;2023-07-13T13:35:44;97121.16;;;28.01;23.81
78206;BME280;67480;48.920;12.880;2023-07-13T13:38:24;97114.09;;;28.90;23.31
78206;BME280;67480;48.920;12.880;2023-07-13T13:40:50;97106.22;;;29.21;23.19
78206;BME280;67480;48.920;12.880;2023-07-13T13:43:17;97109.47;;;29.33;22.31
78206;BME280;67480;48.920;12.880;2023-07-13T13:45:44;97121.88;;;28.95;23.70
78206;BME280;67480;48.920;12.880;2023-07-13T13:48:18;97114.41;;;28.59;23.19
78206;BME280;67480;48.920;12.880;2023-07-13T13:50:44;97121.28;;;29.20;23.29
78206;BME280;67480;48.920;12.880;2023-07-13T13:53:11;97127.44;;;29.11;23.02
78206;BME280;67480;48.920;12.880;2023-07-13T13:55:37;97113.50;;;27.89;23.43
78206;BME280;67480;48.920;12.880;2023-07-13T13:58:02;97095.31;;;27.68;25.18
78206;BME280;67480;48.920;12.880;2023-07-13T14:00:28;97114.50;;;27.11;24.84
78206;BME280;67480;48.920;12.880;2023-07-13T14:02:54;97100.06;;;27.24;24.96
78206;BME280;67480;48.920;12.880;2023-07-13T14:05:24;97111.72;;;27.35;24.25
78206;BME280;67480;48.920;12.880;2023-07-13T14:07:53;97100.91;;;27.21;24.16
78206;BME280;67480;48.920;12.880;2023-07-13T14:10:20;97112.22;;;27.30;24.77
78206;BME280;67480;48.920;12.880;2023-07-13T14:12:47;97102.66;;;26.87;24.56
78206;BME280;67480;48.920;12.880;2023-07-13T14:15:20;97117.03;;;26.75;25.61
78206;BME280;67480;48.920;12.880;2023-07-13T14:17:45;97108.69;;;26.51;25.70
78206;BME280;67480;48.920;12.880;2023-07-13T14:20:15;97100.84;;;26.77;26.65
78206;BME280;67480;48.920;12.880;2023-07-13T14:22:40;97096.94;;;27.22;25.02
78206;BME280;67480;48.920;12.880;2023-07-13T14:25:13;97104.75;;;27.03;24.90
78206;BME280;67480;48.920;12.880;2023-07-13T14:27:41;97104.34;;;27.05;25.77
78206;BME280;67480;48.920;12.880;2023-07-13T14:30:14;97106.13;;;27.15;25.42
78206;BME280;67480;48.920;12.880;2023-07-13T14:32:40;97117.88;;;26.72;25.80
78206;BME280;67480;48.920;12.880;2023-07-13T14:35:17;97111.03;;;26.53;26.79
78206;BME280;67480;48.920;12.880;2023-07-13T14:37:43;97111.25;;;26.66;24.98
78206;BME280;67480;48.920;12.880;2023-07-13T14:40:25;97115.19;;;26.92;25.12
78206;BME280;67480;48.920;12.880;2023-07-13T14:42:51;97120.84;;;26.27;25.49
78206;BME280;67480;48.920;12.880;2023-07-13T14:45:19;97110.59;;;26.27;26.01
78206;BME280;67480;48.920;12.880;2023-07-13T14:47:46;97112.38;;;26.41;24.95
78206;BME280;67480;48.920;12.880;2023-07-13T14:52:38;97106.91;;;26.07;25.39
78206;BME280;67480;48.920;12.880;2023-07-13T14:55:12;97106.63;;;26.59;25.61
78206;BME280;67480;48.920;12.880;2023-07-13T14:57:38;97103.84;;;26.59;24.25
78206;BME280;67480;48.920;12.880;2023-07-13T15:00:05;97105.50;;;26.80;24.07
78206;BME280;67480;48.920;12.880;2023-07-13T15:02:34;97101.63;;;27.01;24.73
78206;BME280;67480;48.920;12.880;2023-07-13T15:05:00;97106.00;;;26.99;24.02
78206;BME280;67480;48.920;12.880;2023-07-13T15:07:26;97105.88;;;26.82;23.62
78206;BME280;67480;48.920;12.880;2023-07-13T15:09:51;97091.59;;;26.60;23.68
78206;BME280;67480;48.920;12.880;2023-07-13T15:12:17;97091.47;;;26.71;23.65
78206;BME280;67480;48.920;12.880;2023-07-13T15:14:42;97099.09;;;26.60;23.23
78206;BME280;67480;48.920;12.880;2023-07-13T15:17:38;97090.56;;;26.50;24.07
78206;BME280;67480;48.920;12.880;2023-07-13T15:20:15;97103.03;;;26.00;23.29
78206;BME280;67480;48.920;12.880;2023-07-13T15:22:42;97093.72;;;25.91;24.41
78206;BME280;67480;48.920;12.880;2023-07-13T15:25:27;97103.78;;;26.35;24.22
78206;BME280;67480;48.920;12.880;2023-07-13T15:27:54;97099.16;;;26.56;23.62
78206;BME280;67480;48.920;12.880;2023-07-13T15:30:20;97093.03;;;26.41;24.05
78206;BME280;67480;48.920;12.880;2023-07-13T15:32:46;97095.41;;;26.15;24.88
78206;BME280;67480;48.920;12.880;2023-07-13T15:35:20;97102.81;;;25.88;24.80
78206;BME280;67480;48.920;12.880;2023-07-13T15:37:47;97095.22;;;25.95;24.35
78206;BME280;67480;48.920;12.880;2023-07-13T15:40:14;97102.41;;;25.89;25.13
78206;BME280;67480;48.920;12.880;2023-07-13T15:42:41;97103.56;;;25.88;24.81
78206;BME280;67480;48.920;12.880;2023-07-13T15:45:23;97093.91;;;26.03;24.96
78206;BME280;67480;48.920;12.880;2023-07-13T15:47:53;97107.97;;;26.16;24.88
78206;BME280;67480;48.920;12.880;2023-07-13T15:50:20;97113.34;;;26.27;24.49
78206;BME280;67480;48.920;12.880;2023-07-13T15:52:52;97104.59;;;26.32;24.61
78206;BME280;67480;48.920;12.880;2023-07-13T15:55:19;97115.94;;;26.11;25.17
78206;BME280;67480;48.920;12.880;2023-07-13T15:57:49;97118.06;;;26.57;25.33
78206;BME280;67480;48.920;12.880;2023-07-13T16:00:25;97121.03;;;26.70;24.54
78206;BME280;67480;48.920;12.880;2023-07-13T16:02:51;97125.31;;;25.82;24.05
78206;BME280;67480;48.920;12.880;2023-07-13T16:05:18;97115.94;;;26.11;24.46
78206;BME280;67480;48.920;12.880;2023-07-13T16:07:48;97122.16;;;26.46;24.38
78206;BME280;67480;48.920;12.880;2023-07-13T16:10:21;97130.66;;;26.58;24.16
78206;BME280;67480;48.920;12.880;2023-07-13T16:12:47;97127.88;;;26.31;23.36
78206;BME280;67480;48.920;12.880;2023-07-13T16:15:15;97128.38;;;26.23;24.38
78206;BME280;67480;48.920;12.880;2023-07-13T16:17:42;97127.63;;;25.88;23.73
78206;BME280;67480;48.920;12.880;2023-07-13T16:20:09;97131.91;;;25.92;24.23
78206;BME280;67480;48.920;12.880;2023-07-13T16:22:39;97121.75;;;26.16;23.51
78206;BME280;67480;48.920;12.880;2023-07-13T16:25:25;97132.78;;;26.20;24.06
78206;BME280;67480;48.920;12.880;2023-07-13T16:27:53;97132.47;;;26.42;23.96
78206;BME280;67480;48.920;12.880;2023-07-13T16:30:22;97137.84;;;26.52;24.32
78206;BME280;67480;48.920;12.880;2023-07-13T16:32:48;97142.50;;;26.59;23.98
78206;BME280;67480;48.920;12.880;2023-07-13T16:35:25;97129.22;;;26.78;24.24
78206;BME280;67480;48.920;12.880;2023-07-13T16:37:51;97132.47;;;26.72;24.09
78206;BME280;67480;48.920;12.880;2023-07-13T16:40:29;97138.34;;;26.98;23.28
78206;BME280;67480;48.920;12.880;2023-07-13T16:42:57;97138.09;;;27.16;24.10
78206;BME280;67480;48.920;12.880;2023-07-13T16:45:25;97138.09;;;27.40;24.19
78206;BME280;67480;48.920;12.880;2023-07-13T16:47:53;97146.91;;;27.07;23.63
78206;BME280;67480;48.920;12.880;2023-07-13T16:50:24;97141.88;;;26.48;23.34
78206;BME280;67480;48.920;12.880;2023-07-13T16:52:51;97144.41;;;26.35;24.25
78206;BME280;67480;48.920;12.880;2023-07-13T16:55:20;97145.13;;;26.39;24.27
78206;BME280;67480;48.920;12.880;2023-07-13T16:57:56;97146.78;;;25.98;24.05
78206;BME280;67480;48.920;12.880;2023-07-13T17:00:28;97145.16;;;25.66;24.48
78206;BME280;67480;48.920;12.880;2023-07-13T17:02:55;97152.09;;;25.44;24.90
78206;BME280;67480;48.920;12.880;2023-07-13T17:05:29;97154.03;;;25.47;25.17
78206;BME280;67480;48.920;12.880;2023-07-13T17:07:56;97153.13;;;25.57;25.31
78206;BME280;67480;48.920;12.880;2023-07-13T17:10:22;97148.84;;;25.53;25.09
78206;BME280;67480;48.920;12.880;2023-07-13T17:12:53;97161.84;;;25.52;24.93
78206;BME280;67480;48.920;12.880;2023-07-13T17:15:19;97160.69;;;25.50;26.13
78206;BME280;67480;48.920;12.880;2023-07-13T17:17:47;97167.00;;;25.46;25.52
78206;BME280;67480;48.920;12.880;2023-07-13T17:20:19;97165.31;;;25.60;26.05
78206;BME280;67480;48.920;12.880;2023-07-13T17:22:47;97163.94;;;25.79;26.44
78206;BME280;67480;48.920;12.880;2023-07-13T17:25:13;97169.63;;;25.99;24.98
78206;BME280;67480;48.920;12.880;2023-07-13T17:27:40;97164.38;;;26.12;24.83
78206;BME280;67480;48.920;12.880;2023-07-13T17:30:07;97165.03;;;25.85;24.43
78206;BME280;67480;48.920;12.880;2023-07-13T17:32:38;97170.56;;;25.85;24.92
78206;BME280;67480;48.920;12.880;2023-07-13T17:35:13;97170.41;;;25.99;25.28
78206;BME280;67480;48.920;12.880;2023-07-13T17:37:42;97167.16;;;26.08;26.24
78206;BME280;67480;48.920;12.880;2023-07-13T17:40:14;97167.19;;;26.05;25.29
78206;BME280;67480;48.920;12.880;2023-07-13T17:42:45;97168.63;;;26.20;26.31
78206;BME280;67480;48.920;12.880;2023-07-13T17:45:11;97171.75;;;26.22;27.43
78206;BME280;67480;48.920;12.880;2023-07-13T17:47:42;97175.06;;;26.06;26.95
78206;BME280;67480;48.920;12.880;2023-07-13T17:50:13;97176.09;;;26.19;28.41
78206;BME280;67480;48.920;12.880;2023-07-13T17:52:39;97179.31;;;26.14;29.38
78206;BME280;67480;48.920;12.880;2023-07-13T17:55:15;97179.69;;;25.78;30.53
78206;BME280;67480;48.920;12.880;2023-07-13T17:57:44;97178.59;;;25.69;29.43
78206;BME280;67480;48.920;12.880;2023-07-13T18:00:15;97177.59;;;25.52;29.72
78206;BME280;67480;48.920;12.880;2023-07-13T18:03:02;97177.88;;;25.16;30.06
78206;BME280;67480;48.920;12.880;2023-07-13T18:05:30;97178.41;;;25.00;31.00
78206;BME280;67480;48.920;12.880;2023-07-13T18:07:56;97180.47;;;24.81;30.71
78206;BME280;67480;48.920;12.880;2023-07-13T18:10:22;97187.69;;;24.50;31.52
78206;BME280;67480;48.920;12.880;2023-07-13T18:12:51;97193.25;;;24.43;32.82
78206;BME280;67480;48.920;12.880;2023-07-13T18:15:18;97189.41;;;24.22;31.95
78206;BME280;67480;48.920;12.880;2023-07-13T18:17:48;97192.19;;;24.15;32.22
78206;BME280;67480;48.920;12.880;2023-07-13T18:20:17;97194.56;;;24.02;32.12
78206;BME280;67480;48.920;12.880;2023-07-13T18:22:44;97185.16;;;23.89;32.08
78206;BME280;67480;48.920;12.880;2023-07-13T18:25:18;97194.22;;;23.75;32.36
78206;BME280;67480;48.920;12.880;2023-07-13T18:27:44;97195.44;;;23.59;32.66
78206;BME280;67480;48.920;12.880;2023-07-13T18:30:13;97193.03;;;23.69;32.80
78206;BME280;67480;48.920;12.880;2023-07-13T18:32:40;97195.44;;;23.48;32.48
78206;BME280;67480;48.920;12.880;2023-07-13T18:35:14;97193.44;;;23.35;32.88
78206;BME280;67480;48.920;12.880;2023-07-13T18:37:41;97198.53;;;23.36;33.31
78206;BME280;67480;48.920;12.880;2023-07-13T18:40:15;97189.13;;;23.16;33.52
78206;BME280;67480;48.920;12.880;2023-07-13T18:42:42;97203.25;;;23.14;33.79
78206;BME280;67480;48.920;12.880;2023-07-13T18:45:11;97205.56;;;22.90;34.49
78206;BME280;67480;48.920;12.880;2023-07-13T18:47:40;97205.50;;;22.69;34.70
78206;BME280;67480;48.920;12.880;2023-07-13T18:50:18;97204.69;;;22.54;34.75
78206;BME280;67480;48.920;12.880;2023-07-13T18:52:46;97210.94;;;22.44;35.42
78206;BME280;67480;48.920;12.880;2023-07-13T18:55:21;97215.97;;;22.38;34.83
78206;BME280;67480;48.920;12.880;2023-07-13T18:57:47;97216.75;;;22.31;35.01
78206;BME280;67480;48.920;12.880;2023-07-13T19:00:14;97211.56;;;22.15;35.24
78206;BME280;67480;48.920;12.880;2023-07-13T19:02:40;97222.84;;;22.03;35.77
78206;BME280;67480;48.920;12.880;2023-07-13T19:05:20;97221.97;;;21.88;35.79
78206;BME280;67480;48.920;12.880;2023-07-13T19:07:45;97223.13;;;21.83;35.61
78206;BME280;67480;48.920;12.880;2023-07-13T19:10:16;97228.50;;;21.69;35.61
78206;BME280;67480;48.920;12.880;2023-07-13T19:12:46;97229.66;;;21.68;35.47
78206;BME280;67480;48.920;12.880;2023-07-13T19:15:31;97231.16;;;21.58;35.52
78206;BME280;67480;48.920;12.880;2023-07-13T19:17:59;97232.00;;;21.66;35.33
78206;BME280;67480;48.920;12.880;2023-07-13T19:20:26;97245.97;;;21.54;35.84
78206;BME280;67480;48.920;12.880;2023-07-13T19:23:02;97237.75;;;21.50;35.38
78206;BME280;67480;48.920;12.880;2023-07-13T19:25:52;97239.97;;;21.37;35.31
78206;BME280;67480;48.920;12.880;2023-07-13T19:28:40;97239.44;;;21.24;35.50
78206;BME280;67480;48.920;12.880;2023-07-13T19:31:17;97255.19;;;21.31;35.20
78206;BME280;67480;48.920;12.880;2023-07-13T19:33:43;97252.50;;;21.35;35.04
78206;BME280;67480;48.920;12.880;2023-07-13T19:36:13;97259.19;;;21.41;34.85
78206;BME280;67480;48.920;12.880;2023-07-13T19:38:39;97259.16;;;21.37;34.95
78206;BME280;67480;48.920;12.880;2023-07-13T19:41:05;97253.59;;;21.30;35.30
78206;BME280;67480;48.920;12.880;2023-07-13T19:43:31;85389.84;;;21.16;35.32
78206;BME280;67480;48.920;12.880;2023-07-13T19:45:56;97259.00;;;21.23;35.04
78206;BME280;67480;48.920;12.880;2023-07-13T19:48:22;97266.75;;;21.14;35.49
78206;BME280;67480;48.920;12.880;2023-07-13T19:50:47;97267.84;;;21.09;35.76
78206;BME280;67480;48.920;12.880;2023-07-13T19:53:18;97270.47;;;20.98;36.18
78206;BME280;67480;48.920;12.880;2023-07-13T19:55:46;97277.56;;;21.03;35.91
78206;BME280;67480;48.920;12.880;2023-07-13T19:58:11;97277.53;;;20.99;36.06
78206;BME280;67480;48.920;12.880;2023-07-13T20:00:37;97274.78;;;20.99;36.04
78206;BME280;67480;48.920;12.880;2023-07-13T20:03:04;97270.03;;;20.92;36.43
78206;BME280;67480;48.920;12.880;2023-07-13T20:05:29;97279.03;;;20.93;36.24
78206;BME280;67480;48.920;12.880;2023-07-13T20:07:56;97281.69;;;20.86;36.72
78206;BME280;67480;48.920;12.880;2023-07-13T20:10:30;97278.25;;;20.92;36.60
78206;BME280;67480;48.920;12.880;2023-07-13T20:12:58;97291.75;;;20.78;36.45
78206;BME280;67480;48.920;12.880;2023-07-13T20:15:28;97285.13;;;20.79;37.09
78206;BME280;67480;48.920;12.880;2023-07-13T20:17:56;97292.97;;;20.81;36.79
78206;BME280;67480;48.920;12.880;2023-07-13T20:20:34;97292.91;;;20.77;36.80
78206;BME280;67480;48.920;12.880;2023-07-13T20:23:00;97304.63;;;20.74;37.35
78206;BME280;67480;48.920;12.880;2023-07-13T20:25:27;97301.81;;;20.70;37.17
78206;BME280;67480;48.920;12.880;2023-07-13T20:27:53;97308.13;;;20.74;37.27
78206;BME280;67480;48.920;12.880;2023-07-13T20:30:19;97317.94;;;20.76;37.33
78206;BME280;67480;48.920;12.880;2023-07-13T20:32:46;97308.13;;;20.74;37.15